Accueil
METAR-TAF:

METAR-TAF

Aéroports :

Laupheim, Allemagne

latitude: 48-13N, longitude: 009-55E, altitude: 538 m

Observation

Le bulletin a été fait il y a 24 minutes, à 03:20 UTC
Vent 4 kt de sud-ouest
Température 4°C
Humidité 93%
Pression 988 hPa
Visibilité: 8000 m
Nuages fragmentés à une hauteur de 3200 ft
pluie faible

METAR: ETHL 110320Z 23004KT 8000 -RA BKN032 04/03 Q0988 BLU

Heure: 04:44 (03:44 UTC)


TAF: absent

Observations et prévisions météorologiques de plus de 4000 aéroports (messages METAR et TAF).

Les stations disponibles sont représentées par des disques jaunes et rouges sur la carte.

Passer la souris dessus pour voir le nom de la station.

Cliquer dessus pour voir les observations et prévisions météorologiques.

Pour changer de carte: cliquez sur les boutons verts avec une croix noire pour zoomer, sur le bouton vert avec un tiret pour effectuer un zoom arrière, ou sur les flèches vertes pour les cartes adjacentes.


METAR-TAF: